Time;durP1;ratioP1;P1;durP2;ratioP2;P2;SDS_P1;SDS_P2;PMS_P1;PMS_P2;Temp;Humidity;BMP_temperature;BMP_pressure;BME280_temperature;BME280_humidity;BME280_pressure;Samples;Min_cycle;Max_cycle;Signal;HPM_P1;HPM_P2
2022/09/10 00:01:03;;;;;;;1.10;0.80;;;14.80;99.90;;;;;;5055513;28;20097;-81
2022/09/10 00:03:28;;;;;;;;;;;15.10;99.90;;;;;;5055734;28;20087;-82
2022/09/10 00:05:54;;;;;;;0.75;0.75;;;14.80;99.90;;;;;;5038746;28;19963;-81
2022/09/10 00:08:20;;;;;;;1.13;0.85;;;15.00;99.90;;;;;;5055366;28;20392;-81
2022/09/10 00:10:49;;;;;;;0.80;0.70;;;15.10;99.90;;;;;;5053973;28;20036;-82
2022/09/10 00:13:18;;;;;;;0.90;0.70;;;15.00;99.90;;;;;;5054972;28;20364;-81
2022/09/10 00:15:52;;;;;;;0.88;0.80;;;15.00;99.90;;;;;;5054695;28;20044;-82
2022/09/10 00:18:21;;;;;;;0.70;0.70;;;15.20;99.90;;;;;;5038292;28;20111;-81
2022/09/10 00:20:54;;;;;;;1.50;1.10;;;14.90;99.90;;;;;;5054751;28;20037;-81
2022/09/10 00:23:25;;;;;;;1.38;1.05;;;14.90;99.90;;;;;;5038010;28;20496;-81
2022/09/10 00:25:56;;;;;;;1.30;1.00;;;15.00;99.90;;;;;;5038025;28;20048;-73
2022/09/10 00:28:24;;;;;;;2.17;1.23;;;15.00;99.90;;;;;;5054505;28;20051;-73
2022/09/10 00:30:53;;;;;;;0.80;0.80;;;14.90;99.90;;;;;;5054410;28;20036;-72
2022/09/10 00:33:21;;;;;;;1.00;0.80;;;15.20;99.90;;;;;;5054095;28;20078;-72
2022/09/10 00:35:47;;;;;;;0.80;0.75;;;14.80;99.90;;;;;;5021260;28;20054;-72
2022/09/10 00:38:14;;;;;;;0.80;0.70;;;14.90;99.90;;;;;;5072073;28;20102;-72
2022/09/10 00:40:40;;;;;;;1.08;0.88;;;15.10;99.90;;;;;;5054565;28;20116;-81
2022/09/10 00:43:19;;;;;;;0.90;0.73;;;15.20;99.90;;;;;;5021866;28;20049;-82
2022/09/10 00:45:49;;;;;;;1.30;1.10;;;15.20;99.90;;;;;;5053719;28;20144;-81
2022/09/10 00:48:25;;;;;;;1.10;1.00;;;15.20;99.90;;;;;;5054036;28;20579;-81
2022/09/10 00:50:51;;;;;;;0.73;0.70;;;15.00;99.90;;;;;;5054128;28;20600;-81
2022/09/10 00:53:22;;;;;;;1.08;0.98;;;14.90;99.90;;;;;;5054390;28;20048;-82
2022/09/10 00:55:52;;;;;;;0.90;0.90;;;15.20;99.90;;;;;;5053901;28;20040;-82
2022/09/10 00:58:19;;;;;;;1.52;1.00;;;15.20;99.90;;;;;;5053964;28;20063;-81
2022/09/10 01:00:45;;;;;;;1.20;1.10;;;15.10;99.90;;;;;;5054115;28;20055;-81
2022/09/10 01:03:14;;;;;;;1.55;1.33;;;15.10;99.90;;;;;;5037411;28;20040;-82
2022/09/10 01:05:44;;;;;;;1.48;1.00;;;14.90;99.90;;;;;;5054108;28;20048;-81
2022/09/10 01:08:14;;;;;;;0.95;0.85;;;15.10;99.90;;;;;;5072176;28;20562;-81
2022/09/10 01:11:05;;;;;;;1.13;0.80;;;15.20;99.90;;;;;;5037256;28;20046;-80
2022/09/10 01:13:34;;;;;;;1.90;1.40;;;14.90;99.90;;;;;;5053705;28;20061;-80
2022/09/10 01:16:18;;;;;;;1.65;1.17;;;15.20;99.90;;;;;;5054065;28;20052;-81
2022/09/10 01:18:55;;;;;;;1.33;1.00;;;14.90;99.90;;;;;;5053303;28;20036;-72
2022/09/10 01:21:27;;;;;;;1.60;1.50;;;15.20;99.90;;;;;;5053408;28;20472;-72
2022/09/10 01:24:15;;;;;;;1.50;1.10;;;15.00;99.90;;;;;;5052887;28;20484;-73
2022/09/10 01:27:19;;;;;;;1.55;1.23;;;14.90;99.90;;;;;;5053367;28;20044;-73
2022/09/10 01:29:57;;;;;;;1.40;1.30;;;15.10;99.90;;;;;;5017941;28;20153;-73
2022/09/10 01:32:34;;;;;;;1.50;1.23;;;15.20;99.90;;;;;;5052982;28;20119;-73
2022/09/10 01:35:21;;;;;;;1.88;1.50;;;15.30;99.90;;;;;;5036947;28;20051;-73
2022/09/10 01:37:53;;;;;;;1.73;1.48;;;15.20;99.90;;;;;;5054053;28;20048;-73
2022/09/10 01:40:27;;;;;;;1.35;1.13;;;15.00;99.90;;;;;;5071554;28;20052;-82
2022/09/10 01:42:53;;;;;;;1.10;1.00;;;15.20;99.90;;;;;;5053681;28;20056;-81
2022/09/10 01:45:19;;;;;;;0.93;0.80;;;15.00;99.90;;;;;;5037232;28;20045;-82
2022/09/10 01:48:11;;;;;;;1.10;1.00;;;15.30;99.90;;;;;;5036872;28;20075;-82
2022/09/10 01:51:03;;;;;;;1.40;1.20;;;15.00;99.90;;;;;;5053495;28;20122;-73
2022/09/10 01:53:59;;;;;;;1.33;1.23;;;15.20;99.90;;;;;;5053267;28;20047;-73
2022/09/10 01:57:09;;;;;;;1.10;1.00;;;15.00;99.90;;;;;;5036357;28;20483;-73
2022/09/10 01:59:42;;;;;;;0.82;0.80;;;15.00;99.90;;;;;;5053068;28;20048;-73
2022/09/10 02:02:35;;;;;;;1.60;1.33;;;15.00;99.90;;;;;;5053167;28;20109;-73
2022/09/10 02:05:03;;;;;;;2.90;2.50;;;15.20;99.90;;;;;;5053311;28;20067;-73
2022/09/10 02:07:30;;;;;;;3.10;2.60;;;15.20;99.90;;;;;;5053057;28;20067;-73
2022/09/10 02:09:58;;;;;;;2.92;2.63;;;15.20;99.90;;;;;;5036651;28;20040;-73
2022/09/10 02:12:23;;;;;;;2.60;2.40;;;15.10;99.90;;;;;;5053605;28;20102;-82
2022/09/10 02:14:52;;;;;;;2.05;1.85;;;15.20;99.90;;;;;;5053990;28;20392;-80
2022/09/10 02:17:19;;;;;;;2.45;1.92;;;14.90;99.90;;;;;;5036963;28;20373;-82
2022/09/10 02:19:47;;;;;;;2.00;1.70;;;15.20;99.90;;;;;;5053002;28;20045;-73
2022/09/10 02:22:14;;;;;;;1.40;1.30;;;15.10;99.90;;;;;;5053017;28;20052;-73
2022/09/10 02:24:43;;;;;;;2.47;1.85;;;15.00;99.90;;;;;;5036394;28;20040;-73
2022/09/10 02:27:13;;;;;;;2.10;1.90;;;15.20;99.90;;;;;;5052703;28;20048;-81
2022/09/10 02:29:39;;;;;;;2.40;1.83;;;15.20;99.90;;;;;;5053407;28;20483;-82
2022/09/10 02:32:05;;;;;;;;;;;15.30;99.90;;;;;;5053280;28;20032;-73
2022/09/10 02:34:32;;;;;;;1.67;1.17;;;15.10;99.90;;;;;;5053852;28;19981;-73
2022/09/10 02:36:57;;;;;;;;;;;15.20;99.90;;;;;;5057143;28;20044;-73
2022/09/10 02:39:23;;;;;;;3.38;3.08;;;15.10;99.90;;;;;;5056596;28;19924;-73
2022/09/10 02:41:49;;;;;;;3.55;2.92;;;15.00;99.90;;;;;;5056887;28;20044;-73
2022/09/10 02:44:16;;;;;;;2.83;2.50;;;14.90;99.90;;;;;;5056857;28;20063;-73
2022/09/10 02:46:43;;;;;;;3.03;2.72;;;14.90;99.90;;;;;;5056889;28;20045;-73
2022/09/10 02:49:09;;;;;;;1.83;1.63;;;15.00;99.90;;;;;;5040491;28;20109;-73
2022/09/10 02:51:38;;;;;;;2.65;2.25;;;15.00;99.90;;;;;;5040059;28;20557;-73
2022/09/10 02:54:04;;;;;;;2.60;2.00;;;15.20;99.90;;;;;;5039986;28;20044;-73
2022/09/10 02:56:30;;;;;;;2.17;1.83;;;14.90;99.90;;;;;;5056537;28;20045;-73
2022/09/10 02:58:55;;;;;;;2.20;2.00;;;15.20;99.90;;;;;;5023482;28;20048;-73
2022/09/10 03:01:22;;;;;;;1.65;1.40;;;15.00;99.90;;;;;;5056431;28;20055;-74
2022/09/10 03:03:49;;;;;;;;;;;15.30;99.90;;;;;;5056794;28;20040;-73
2022/09/10 03:06:16;;;;;;;1.75;1.50;;;15.10;99.90;;;;;;5039727;28;19928;-82
2022/09/10 03:08:42;;;;;;;1.40;1.30;;;14.90;99.90;;;;;;5056758;28;20083;-73
2022/09/10 03:11:07;;;;;;;1.70;1.50;;;15.20;99.90;;;;;;5039644;28;20122;-73
2022/09/10 03:13:34;;;;;;;3.13;2.60;;;15.20;99.90;;;;;;5056598;28;20041;-82
2022/09/10 03:16:02;;;;;;;3.85;3.08;;;14.90;99.90;;;;;;5040015;28;20040;-82
2022/09/10 03:18:30;;;;;;;2.92;2.45;;;15.30;99.90;;;;;;5056392;28;20504;-82
2022/09/10 03:21:12;;;;;;;1.90;1.75;;;15.20;99.90;;;;;;5056445;28;20062;-82
2022/09/10 03:23:39;;;;;;;1.73;1.60;;;14.90;99.90;;;;;;5056131;28;20044;-81
2022/09/10 03:26:05;;;;;;;2.22;1.73;;;14.90;99.90;;;;;;5056109;28;20044;-82
2022/09/10 03:28:32;;;;;;;2.30;1.90;;;15.20;99.90;;;;;;5056416;28;20055;-81
2022/09/10 03:30:58;;;;;;;2.20;1.95;;;15.30;99.90;;;;;;5056290;28;20495;-82
2022/09/10 03:33:23;;;;;;;2.00;1.80;;;15.30;99.90;;;;;;5056195;28;20051;-81
2022/09/10 03:35:51;;;;;;;2.88;2.10;;;15.30;99.90;;;;;;5056106;28;20053;-82
2022/09/10 03:38:17;;;;;;;2.25;1.75;;;15.20;99.90;;;;;;5039478;28;20075;-82
2022/09/10 03:40:43;;;;;;;2.28;2.08;;;15.30;99.90;;;;;;5039407;28;20130;-82
2022/09/10 03:43:09;;;;;;;1.40;1.30;;;15.30;99.90;;;;;;5055938;28;20491;-82
2022/09/10 03:45:34;;;;;;;2.50;2.30;;;15.10;99.90;;;;;;5055692;28;20120;-82
2022/09/10 03:48:02;;;;;;;3.88;2.17;;;15.00;99.90;;;;;;5055712;28;20086;-73
2022/09/10 03:50:27;;;;;;;2.20;1.90;;;15.30;99.90;;;;;;5073516;28;20093;-73
2022/09/10 03:52:53;;;;;;;1.95;1.73;;;15.20;99.90;;;;;;5039024;28;20033;-73
2022/09/10 03:55:21;;;;;;;2.78;2.08;;;15.10;99.90;;;;;;5055616;28;20076;-73
2022/09/10 03:57:46;;;;;;;3.10;2.78;;;15.20;99.90;;;;;;5055306;28;20055;-73
2022/09/10 04:00:12;;;;;;;3.10;2.58;;;15.00;99.90;;;;;;5055298;28;20036;-73
2022/09/10 04:02:40;;;;;;;;;;;14.90;99.90;;;;;;5039738;28;20128;-82
2022/09/10 04:05:07;;;;;;;2.40;1.92;;;15.20;99.90;;;;;;5039429;28;20295;-82
2022/09/10 04:07:33;;;;;;;2.80;2.10;;;15.20;99.90;;;;;;5055414;28;20427;-82
2022/09/10 04:09:58;;;;;;;;;;;15.10;99.90;;;;;;5056026;28;20032;-82
2022/09/10 04:12:25;;;;;;;2.75;2.35;;;15.00;99.90;;;;;;5055556;28;19973;-81
2022/09/10 04:14:52;;;;;;;3.10;2.80;;;15.10;99.90;;;;;;5038867;28;20489;-82
2022/09/10 04:17:17;;;;;;;;;;;15.20;99.90;;;;;;5039110;28;20056;-82
2022/09/10 04:19:43;;;;;;;2.50;2.17;;;14.90;99.90;;;;;;5038483;28;20058;-82
2022/09/10 04:22:09;;;;;;;2.53;2.00;;;14.90;99.90;;;;;;5055375;28;20060;-73
2022/09/10 04:24:35;;;;;;;2.38;1.90;;;15.20;99.90;;;;;;5054956;28;20491;-73
2022/09/10 04:27:01;;;;;;;1.70;1.60;;;15.00;99.90;;;;;;5038391;28;20052;-73
2022/09/10 04:29:27;;;;;;;1.88;1.60;;;15.20;99.90;;;;;;5038430;28;20131;-82
2022/09/10 04:31:54;;;;;;;;;;;14.90;99.90;;;;;;5055713;28;20043;-82
2022/09/10 04:34:21;;;;;;;1.80;1.52;;;15.10;99.90;;;;;;5038614;28;20367;-82
2022/09/10 04:36:48;;;;;;;2.10;1.65;;;14.90;99.90;;;;;;5054861;28;20106;-83
2022/09/10 04:39:15;;;;;;;3.83;3.00;;;15.20;99.90;;;;;;5038509;28;20056;-73
2022/09/10 04:41:41;;;;;;;3.33;3.00;;;14.90;99.90;;;;;;5054562;28;20040;-73
2022/09/10 04:44:07;;;;;;;3.63;2.97;;;14.80;99.90;;;;;;5054435;28;20044;-82
2022/09/10 04:46:33;;;;;;;4.05;2.97;;;15.30;99.90;;;;;;5054739;28;20044;-81
2022/09/10 04:48:59;;;;;;;3.42;2.75;;;15.00;99.90;;;;;;5054760;28;20480;-82
2022/09/10 04:51:25;;;;;;;3.72;3.03;;;15.00;99.90;;;;;;5037926;28;20048;-82
2022/09/10 04:53:51;;;;;;;2.90;2.50;;;15.20;99.90;;;;;;5054743;28;20039;-82
2022/09/10 04:56:17;;;;;;;2.83;2.45;;;15.10;99.90;;;;;;5039501;28;20067;-73
2022/09/10 04:58:43;;;;;;;3.92;3.10;;;15.30;99.90;;;;;;5037083;28;20080;-73
2022/09/10 05:01:10;;;;;;;3.38;2.85;;;14.90;99.90;;;;;;5037411;28;20090;-73
2022/09/10 05:03:35;;;;;;;3.47;2.60;;;14.90;99.90;;;;;;5059057;28;20045;-83
2022/09/10 05:06:03;;;;;;;2.25;2.00;;;15.00;99.90;;;;;;5044110;28;20501;-81
2022/09/10 05:08:30;;;;;;;1.80;1.70;;;15.30;99.90;;;;;;5061069;28;20040;-81
2022/09/10 05:10:56;;;;;;;1.98;1.77;;;14.90;99.90;;;;;;5060998;28;20041;-82
2022/09/10 05:13:23;;;;;;;1.90;1.70;;;14.90;99.90;;;;;;5059858;28;20042;-82
2022/09/10 05:15:49;;;;;;;1.90;1.80;;;14.90;99.90;;;;;;5054963;28;20447;-73
2022/09/10 05:18:15;;;;;;;3.22;2.83;;;15.30;99.90;;;;;;5055663;28;20084;-82
2022/09/10 05:20:44;;;;;;;2.13;1.92;;;15.10;99.90;;;;;;5056552;28;20127;-73
2022/09/10 05:23:10;;;;;;;1.98;1.77;;;15.00;99.90;;;;;;5037524;28;20478;-82
2022/09/10 05:25:36;;;;;;;2.13;1.92;;;15.00;99.90;;;;;;5056600;28;20052;-82
2022/09/10 05:28:04;;;;;;;2.00;1.80;;;15.40;99.90;;;;;;5057192;28;20049;-82
2022/09/10 05:30:31;;;;;;;1.40;1.30;;;15.30;99.90;;;;;;5038715;28;20050;-81
2022/09/10 05:33:01;;;;;;;2.80;1.88;;;15.10;99.90;;;;;;5038282;28;20094;-82
2022/09/10 05:35:28;;;;;;;1.98;1.70;;;15.00;99.90;;;;;;5054507;28;20044;-82
2022/09/10 05:37:56;;;;;;;1.90;1.50;;;15.20;99.90;;;;;;5037872;28;20040;-82
2022/09/10 05:40:21;;;;;;;2.00;1.50;;;15.40;99.90;;;;;;5037835;28;20060;-82
2022/09/10 05:42:48;;;;;;;1.50;1.40;;;15.30;99.90;;;;;;5053339;28;20105;-73
2022/09/10 05:45:14;;;;;;;1.40;1.27;;;15.10;99.90;;;;;;5053174;28;20083;-73
2022/09/10 05:47:40;;;;;;;;;;;15.30;99.90;;;;;;5037184;28;20052;-82
2022/09/10 05:50:06;;;;;;;1.35;1.20;;;15.50;99.90;;;;;;5053789;28;19916;-81
2022/09/10 05:52:32;;;;;;;1.40;1.30;;;15.40;99.90;;;;;;5053726;28;20043;-81
2022/09/10 05:54:58;;;;;;;3.00;1.60;;;15.50;99.90;;;;;;5037464;28;20040;-81
2022/09/10 05:57:24;;;;;;;1.75;1.38;;;15.30;99.90;;;;;;5054063;28;20044;-73
2022/09/10 05:59:51;;;;;;;;;;;15.20;99.90;;;;;;5053712;28;20040;-72
2022/09/10 06:02:18;;;;;;;1.57;1.23;;;15.20;99.90;;;;;;5053166;28;19920;-72
2022/09/10 06:04:43;;;;;;;1.65;1.45;;;15.60;99.90;;;;;;5053209;28;20500;-73
2022/09/10 06:07:10;;;;;;;1.70;1.40;;;15.30;99.90;;;;;;5052690;28;20128;-82
2022/09/10 06:09:35;;;;;;;;;;;15.30;99.90;;;;;;5054291;28;20044;-82
2022/09/10 06:12:01;;;;;;;1.45;1.35;;;15.30;99.90;;;;;;5053523;28;20299;-82
2022/09/10 06:14:27;;;;;;;;;;;15.50;99.90;;;;;;5053939;28;20496;-82
2022/09/10 06:16:55;;;;;;;1.40;1.30;;;15.30;99.90;;;;;;5053406;28;19923;-82
2022/09/10 06:19:21;;;;;;;1.90;1.60;;;15.30;99.90;;;;;;5053164;28;20056;-73
2022/09/10 06:21:49;;;;;;;1.55;1.45;;;15.60;99.90;;;;;;5052777;28;20048;-73
2022/09/10 06:24:15;;;;;;;1.42;1.25;;;15.70;99.90;;;;;;5071183;28;20548;-82
2022/09/10 06:26:41;;;;;;;1.70;1.52;;;15.40;99.90;;;;;;5053107;28;20063;-82
2022/09/10 06:29:07;;;;;;;2.00;1.80;;;15.40;99.90;;;;;;5053273;28;20041;-73
2022/09/10 06:31:33;;;;;;;2.60;2.20;;;15.70;99.90;;;;;;5052737;28;20114;-73
2022/09/10 06:33:59;;;;;;;;;;;15.60;99.90;;;;;;5053517;28;20062;-73
2022/09/10 06:36:27;;;;;;;2.13;1.92;;;15.40;99.90;;;;;;5052940;28;20360;-73
2022/09/10 06:38:55;;;;;;;2.13;1.90;;;15.80;99.90;;;;;;5052488;28;20084;-73
2022/09/10 06:41:21;;;;;;;3.53;2.45;;;15.60;99.90;;;;;;5052891;28;20442;-73
2022/09/10 06:43:47;;;;;;;3.08;2.78;;;15.50;99.90;;;;;;5052881;28;20040;-73
2022/09/10 06:46:18;;;;;;;3.45;3.08;;;15.80;99.90;;;;;;5052684;28;20044;-73
2022/09/10 06:48:44;;;;;;;2.42;2.22;;;15.90;99.90;;;;;;5052548;28;20082;-73
2022/09/10 06:51:11;;;;;;;2.50;2.30;;;15.60;99.90;;;;;;5052544;28;20484;-73
2022/09/10 06:53:39;;;;;;;2.90;2.60;;;16.00;99.90;;;;;;5052541;28;20047;-81
2022/09/10 06:56:07;;;;;;;2.30;2.10;;;15.80;99.90;;;;;;5053215;28;20472;-82
2022/09/10 06:58:37;;;;;;;1.92;1.60;;;15.60;99.90;;;;;;5052494;28;20052;-73
2022/09/10 07:01:13;;;;;;;2.08;1.80;;;15.70;99.90;;;;;;5035983;28;20049;-73
2022/09/10 07:03:39;;;;;;;1.52;1.35;;;15.70;99.90;;;;;;5052399;28;20048;-73
2022/09/10 07:06:09;;;;;;;3.10;2.20;;;15.70;99.90;;;;;;5052151;28;20083;-73
2022/09/10 07:08:35;;;;;;;3.10;2.35;;;16.00;99.90;;;;;;5052432;28;20072;-73
2022/09/10 07:11:03;;;;;;;2.70;2.15;;;16.00;99.90;;;;;;5035897;28;20048;-73
2022/09/10 07:13:30;;;;;;;2.95;2.65;;;16.00;99.90;;;;;;5052606;28;20099;-73
2022/09/10 07:15:57;;;;;;;3.40;2.45;;;15.80;99.90;;;;;;5052778;28;20043;-82
2022/09/10 07:18:23;;;;;;;;;;;16.00;99.90;;;;;;5053077;28;20048;-81
2022/09/10 07:20:49;;;;;;;3.75;3.00;;;16.10;99.90;;;;;;5054122;28;20003;-82
2022/09/10 07:23:16;;;;;;;;;;;16.00;99.90;;;;;;5056659;28;20040;-82
2022/09/10 07:25:42;;;;;;;3.70;2.78;;;16.10;99.90;;;;;;5039620;28;20394;-82
2022/09/10 07:28:12;;;;;;;3.15;2.60;;;16.00;99.90;;;;;;5055990;28;20044;-73
2022/09/10 07:30:42;;;;;;;3.40;2.88;;;16.10;99.90;;;;;;5039234;28;20080;-73
2022/09/10 07:33:10;;;;;;;2.63;2.42;;;15.80;99.90;;;;;;5056041;28;20126;-73
2022/09/10 07:35:36;;;;;;;2.40;1.73;;;16.10;99.90;;;;;;5055914;28;20404;-73
2022/09/10 07:38:03;;;;;;;2.72;1.70;;;15.90;99.90;;;;;;5038953;28;20082;-73
2022/09/10 07:40:30;;;;;;;2.10;1.80;;;16.20;99.90;;;;;;5055479;28;20099;-73
2022/09/10 07:42:56;;;;;;;1.70;1.60;;;16.20;99.90;;;;;;5039053;28;20052;-73
2022/09/10 07:45:24;;;;;;;2.35;2.00;;;15.90;99.90;;;;;;5055720;28;20139;-73
2022/09/10 07:47:50;;;;;;;1.60;1.40;;;16.20;99.90;;;;;;5055460;28;20061;-73
2022/09/10 07:50:16;;;;;;;1.98;1.77;;;16.00;99.90;;;;;;5073380;28;20128;-73
2022/09/10 07:52:42;;;;;;;2.17;1.88;;;16.30;99.90;;;;;;5039042;28;20135;-73
2022/09/10 07:55:08;;;;;;;1.50;1.40;;;16.00;99.90;;;;;;5055475;28;20484;-73
2022/09/10 07:57:36;;;;;;;;;;;16.30;99.90;;;;;;5039134;28;20093;-73
2022/09/10 08:00:13;;;;;;;3.40;2.72;;;16.10;99.90;;;;;;5055712;28;19924;-82
2022/09/10 08:02:43;;;;;;;2.38;2.17;;;16.30;99.90;;;;;;5055438;28;20052;-82
2022/09/10 08:05:09;;;;;;;2.33;1.80;;;16.10;99.90;;;;;;5055676;28;20049;-82
2022/09/10 08:07:36;;;;;;;1.98;1.50;;;16.40;99.90;;;;;;5055010;28;20044;-73
2022/09/10 08:10:04;;;;;;;1.70;1.50;;;16.40;99.90;;;;;;5038511;28;20036;-73
2022/09/10 08:12:32;;;;;;;3.10;2.13;;;16.20;99.90;;;;;;5054878;28;20040;-73
2022/09/10 08:14:59;;;;;;;3.50;2.20;;;16.30;99.90;;;;;;5038595;28;20048;-73
2022/09/10 08:17:28;;;;;;;2.30;1.70;;;16.30;99.90;;;;;;5055109;28;20040;-82
2022/09/10 08:19:54;;;;;;;1.70;1.40;;;16.10;99.90;;;;;;5055574;28;20365;-82
2022/09/10 08:22:19;;;;;;;1.35;1.25;;;16.10;99.90;;;;;;5055061;28;20044;-82
2022/09/10 08:24:47;;;;;;;2.67;1.90;;;16.20;99.90;;;;;;5038136;28;20041;-82
2022/09/10 08:27:14;;;;;;;2.35;1.90;;;16.20;99.90;;;;;;5054878;28;20048;-82
2022/09/10 08:29:41;;;;;;;2.88;2.30;;;16.40;99.90;;;;;;5054783;28;20079;-82
2022/09/10 08:32:07;;;;;;;2.97;2.45;;;16.40;99.90;;;;;;5037182;28;20567;-82
2022/09/10 08:34:33;;;;;;;2.05;1.85;;;16.50;99.90;;;;;;5054737;28;20135;-82
2022/09/10 08:37:02;;;;;;;2.88;2.00;;;16.50;99.90;;;;;;5054510;28;20051;-82
2022/09/10 08:39:29;;;;;;;2.85;1.90;;;16.40;99.90;;;;;;5054558;28;20181;-81
2022/09/10 08:42:19;;;;;;;2.78;2.00;;;16.40;99.90;;;;;;5037907;28;20487;-81
2022/09/10 08:45:08;;;;;;;2.55;1.92;;;16.40;99.90;;;;;;5054293;28;20079;-81
2022/09/10 08:47:39;;;;;;;2.10;1.88;;;16.70;99.90;;;;;;5054284;28;20099;-81
2022/09/10 08:50:10;;;;;;;1.92;1.65;;;16.40;99.90;;;;;;5054267;28;20119;-81
2022/09/10 08:52:42;;;;;;;1.50;1.33;;;16.50;99.90;;;;;;5054063;28;20377;-80
2022/09/10 08:55:17;;;;;;;2.33;1.70;;;16.80;99.90;;;;;;5054386;28;20502;-82
2022/09/10 08:57:47;;;;;;;1.95;1.70;;;16.80;99.90;;;;;;5037846;28;20048;-82
2022/09/10 09:00:22;;;;;;;2.55;1.58;;;16.70;99.90;;;;;;5037938;28;20080;-82
2022/09/10 09:02:55;;;;;;;2.20;1.70;;;16.70;99.90;;;;;;5054277;28;20507;-81
2022/09/10 09:05:23;;;;;;;1.85;1.63;;;16.90;99.90;;;;;;5053905;28;20094;-73
2022/09/10 09:07:50;;;;;;;1.88;1.50;;;16.90;99.90;;;;;;5020769;28;20084;-82
2022/09/10 09:10:25;;;;;;;1.90;1.70;;;16.90;99.90;;;;;;5054059;28;20464;-83
2022/09/10 09:13:11;;;;;;;1.63;1.42;;;16.90;99.90;;;;;;5054140;28;20048;-83
2022/09/10 09:15:50;;;;;;;1.23;1.13;;;16.80;99.90;;;;;;5053732;28;20503;-82
2022/09/10 09:18:51;;;;;;;1.40;1.30;;;16.90;99.90;;;;;;5037216;28;20108;-83
2022/09/10 09:21:24;;;;;;;1.40;1.30;;;16.80;99.90;;;;;;5036872;28;20045;-74
2022/09/10 09:23:55;;;;;;;1.30;1.20;;;16.90;99.90;;;;;;5053492;28;20519;-74
2022/09/10 09:26:33;;;;;;;1.63;1.17;;;16.80;99.90;;;;;;5053731;28;20074;-73
2022/09/10 09:29:18;;;;;;;1.48;1.27;;;17.00;99.90;;;;;;5053491;28;20041;-73
2022/09/10 09:31:48;;;;;;;1.55;1.20;;;16.80;99.90;;;;;;5053570;28;20082;-73
2022/09/10 09:34:31;;;;;;;2.35;1.65;;;17.10;99.90;;;;;;5053548;28;20545;-72
2022/09/10 09:37:02;;;;;;;1.45;1.20;;;17.10;99.90;;;;;;5053559;28;20387;-73
2022/09/10 09:39:42;;;;;;;1.27;1.13;;;16.90;99.90;;;;;;5053420;28;20057;-74
2022/09/10 09:42:44;;;;;;;3.67;2.67;;;16.90;99.90;;;;;;5053223;28;20060;-73
2022/09/10 09:45:27;;;;;;;2.78;2.30;;;17.10;99.90;;;;;;5032514;28;20129;-73
2022/09/10 09:47:53;;;;;;;4.43;3.63;;;17.10;99.90;;;;;;5053158;28;20157;-73
2022/09/10 09:50:20;;;;;;;5.30;4.03;;;17.20;99.90;;;;;;5053433;28;20047;-73
2022/09/10 09:52:46;;;;;;;3.33;2.67;;;17.10;99.90;;;;;;5053243;28;20059;-73
2022/09/10 09:55:45;;;;;;;3.55;2.90;;;17.20;99.90;;;;;;5053291;28;20048;-74
2022/09/10 09:58:20;;;;;;;4.35;2.90;;;17.30;99.90;;;;;;5053201;28;20055;-75
2022/09/10 10:00:49;;;;;;;2.60;2.30;;;17.20;99.90;;;;;;5052993;28;20048;-73
2022/09/10 10:03:24;;;;;;;2.08;1.60;;;17.40;99.90;;;;;;5036762;28;20178;-73
2022/09/10 10:05:50;;;;;;;2.63;2.17;;;17.30;99.90;;;;;;5052890;28;20101;-73
2022/09/10 10:08:40;;;;;;;;;;;17.40;99.90;;;;;;5053176;28;20123;-74
2022/09/10 10:11:07;;;;;;;2.15;1.90;;;17.60;99.90;;;;;;5042759;28;19923;-82
2022/09/10 10:13:41;;;;;;;2.25;1.80;;;17.50;99.90;;;;;;5053426;28;20133;-83
2022/09/10 10:16:16;;;;;;;1.52;1.23;;;17.60;99.90;;;;;;5053085;28;20040;-81
2022/09/10 10:18:43;;;;;;;1.20;1.10;;;17.70;99.90;;;;;;5053286;28;20055;-81
2022/09/10 10:21:19;;;;;;;1.45;1.20;;;17.70;99.90;;;;;;5052794;28;20055;-82
2022/09/10 10:23:45;;;;;;;1.60;1.20;;;17.70;99.90;;;;;;5052833;28;20040;-82
2022/09/10 10:26:34;;;;;;;2.05;1.45;;;17.80;99.90;;;;;;5052767;28;20123;-81
2022/09/10 10:29:16;;;;;;;2.33;1.60;;;17.80;99.90;;;;;;5052765;28;20480;-82
2022/09/10 10:31:45;;;;;;;1.67;1.30;;;17.80;99.90;;;;;;5052725;28;20044;-82
2022/09/10 10:34:31;;;;;;;2.42;2.00;;;18.00;99.90;;;;;;5052578;28;20053;-72
2022/09/10 10:37:03;;;;;;;2.42;1.85;;;18.00;99.90;;;;;;5052013;28;20427;-73
2022/09/10 10:40:04;;;;;;;1.70;1.42;;;17.90;99.90;;;;;;5052528;28;20064;-73
2022/09/10 10:42:40;;;;;;;2.05;1.65;;;18.00;99.90;;;;;;4953232;28;20125;-81
2022/09/10 10:45:07;;;;;;;2.00;1.80;;;17.80;99.90;;;;;;5039284;28;20441;-81
2022/09/10 10:47:54;;;;;;;2.45;1.70;;;17.80;99.90;;;;;;5052656;28;20446;-73
2022/09/10 10:50:24;;;;;;;2.08;1.52;;;17.80;99.90;;;;;;5052554;28;20086;-82
2022/09/10 10:53:05;;;;;;;3.10;2.20;;;17.80;99.90;;;;;;5036015;28;20432;-73
2022/09/10 10:55:39;;;;;;;2.08;1.65;;;17.70;99.90;;;;;;5053664;28;20048;-73
2022/09/10 10:58:54;;;;;;;2.40;2.20;;;17.80;99.90;;;;;;5056577;28;20056;-73
2022/09/10 11:01:28;;;;;;;2.00;1.80;;;17.70;99.90;;;;;;5023020;28;20059;-81
2022/09/10 11:04:01;;;;;;;4.45;3.15;;;17.80;99.90;;;;;;5056340;28;20048;-73
2022/09/10 11:06:43;;;;;;;2.33;1.90;;;17.70;99.90;;;;;;5056152;28;20515;-73
2022/09/10 11:09:42;;;;;;;2.47;2.00;;;17.80;99.90;;;;;;5039794;28;20138;-73
2022/09/10 11:12:15;;;;;;;1.92;1.58;;;17.70;99.90;;;;;;5039457;28;20039;-81
2022/09/10 11:14:55;;;;;;;2.15;1.40;;;17.70;99.90;;;;;;5056404;28;20049;-80
2022/09/10 11:17:34;;;;;;;1.30;1.20;;;17.70;99.90;;;;;;5056118;28;20052;-81
2022/09/10 11:20:19;;;;;;;1.52;1.30;;;17.70;99.90;;;;;;5039553;28;20105;-81
2022/09/10 11:22:55;;;;;;;1.45;1.35;;;17.80;99.90;;;;;;5056343;28;20036;-82
2022/09/10 11:25:20;;;;;;;1.60;1.33;;;17.70;99.90;;;;;;5039485;28;20048;-81
2022/09/10 11:27:49;;;;;;;;;;;17.80;99.90;;;;;;5056312;28;20086;-73
2022/09/10 11:30:16;;;;;;;2.28;1.30;;;17.80;99.90;;;;;;5056114;28;19920;-73
2022/09/10 11:32:58;;;;;;;1.67;1.15;;;17.90;99.90;;;;;;5056113;28;20099;-73
2022/09/10 11:35:28;;;;;;;1.30;1.20;;;18.00;99.90;;;;;;5055750;28;20487;-74
2022/09/10 11:38:22;;;;;;;1.33;1.17;;;18.10;99.90;;;;;;5055638;28;20059;-73
2022/09/10 11:41:02;;;;;;;1.60;1.30;;;18.20;99.90;;;;;;5055425;28;20056;-73
2022/09/10 11:43:51;;;;;;;3.42;2.30;;;18.40;99.90;;;;;;5055776;28;20392;-73
2022/09/10 11:46:28;;;;;;;4.15;2.95;;;18.60;99.90;;;;;;5055347;28;20044;-72
2022/09/10 11:49:05;;;;;;;2.22;1.90;;;18.60;99.90;;;;;;5055339;28;20047;-74
2022/09/10 11:51:35;;;;;;;3.03;2.60;;;18.70;99.90;;;;;;5039135;28;20384;-74
2022/09/10 11:54:04;;;;;;;5.55;3.58;;;18.90;99.90;;;;;;5039112;28;20044;-74
2022/09/10 11:56:33;;;;;;;2.20;2.00;;;19.20;99.90;;;;;;5055208;28;20036;-74
2022/09/10 11:59:16;;;;;;;2.30;1.90;;;19.70;99.90;;;;;;5055527;28;20040;-74
2022/09/10 12:01:42;;;;;;;4.43;3.30;;;20.30;99.90;;;;;;5038932;28;20033;-73
2022/09/10 12:04:21;;;;;;;;;;;20.60;99.90;;;;;;5039290;28;20043;-73
2022/09/10 12:06:55;;;;;;;4.53;3.30;;;20.60;99.90;;;;;;5054906;28;19924;-73
2022/09/10 12:09:27;;;;;;;3.33;2.50;;;20.70;99.90;;;;;;5054991;28;20036;-74
2022/09/10 12:12:12;;;;;;;1.80;1.50;;;20.90;99.90;;;;;;5055001;28;20048;-74
2022/09/10 12:14:39;;;;;;;4.57;3.72;;;21.20;99.90;;;;;;5038327;28;20467;-80
2022/09/10 12:17:15;;;;;;;2.53;2.22;;;21.30;99.90;;;;;;5022013;28;20036;-82
2022/09/10 12:19:48;;;;;;;1.83;1.60;;;21.30;99.90;;;;;;5054956;28;20056;-81
2022/09/10 12:22:35;;;;;;;1.60;1.50;;;21.30;99.90;;;;;;5054809;28;20056;-73
2022/09/10 12:25:05;;;;;;;1.80;1.40;;;21.10;99.90;;;;;;5054666;28;20083;-73
2022/09/10 12:27:51;;;;;;;1.60;1.27;;;21.00;99.90;;;;;;5072689;28;20479;-73
2022/09/10 12:30:29;;;;;;;1.65;1.40;;;20.70;99.90;;;;;;5055050;28;20040;-73
2022/09/10 12:32:58;;;;;;;2.85;2.13;;;20.50;99.90;;;;;;5054509;28;20086;-73
2022/09/10 12:35:36;;;;;;;3.00;2.15;;;20.20;99.90;;;;;;5038152;28;20044;-73
2022/09/10 12:38:39;;;;;;;1.42;1.30;;;20.10;99.90;;;;;;5037822;28;20512;-73
2022/09/10 12:41:28;;;;;;;1.45;1.20;;;20.60;99.90;;;;;;5037794;28;20094;-73
2022/09/10 12:43:56;;;;;;;1.23;1.10;;;21.30;99.90;;;;;;5001170;28;20091;-73
2022/09/10 12:46:24;;;;;;;1.20;1.10;;;21.50;99.90;;;;;;5037759;28;20113;-74
2022/09/10 12:48:57;;;;;;;1.10;1.00;;;21.60;99.90;;;;;;5054296;28;20043;-74
2022/09/10 12:51:22;;;;;;;1.80;1.45;;;22.00;99.90;;;;;;5037670;28;20044;-74
2022/09/10 12:54:03;;;;;;;1.33;1.23;;;22.30;99.90;;;;;;5054291;28;20044;-73
2022/09/10 12:57:01;;;;;;;1.08;0.95;;;22.40;99.90;;;;;;5054261;28;20041;-73
2022/09/10 12:59:48;;;;;;;1.88;1.30;;;22.20;99.90;;;;;;5054636;28;20041;-73
2022/09/10 13:02:30;;;;;;;1.60;1.10;;;21.80;99.90;;;;;;5037530;28;20040;-73
2022/09/10 13:05:04;;;;;;;1.30;0.90;;;21.90;99.90;;;;;;5054004;28;20044;-73
2022/09/10 13:07:39;;;;;;;2.35;1.77;;;22.20;99.90;;;;;;5053994;28;20044;-73
2022/09/10 13:10:19;;;;;;;1.10;1.00;;;22.00;99.90;;;;;;5053875;28;20593;-73
2022/09/10 13:12:47;;;;;;;3.17;2.20;;;22.00;99.90;;;;;;5053925;28;20123;-74
2022/09/10 13:15:44;;;;;;;1.88;1.35;;;21.70;99.90;;;;;;5053937;28;20063;-74